sensor_id;sensor_type;location;lat;lon;timestamp;temperature;humidity
6538;DHT22;3302;52.508;13.454;2023-11-19T00:00:34;4.30;99.90
6538;DHT22;3302;52.508;13.454;2023-11-19T00:03:00;4.40;99.90
6538;DHT22;3302;52.508;13.454;2023-11-19T00:05:25;4.30;99.90
6538;DHT22;3302;52.508;13.454;2023-11-19T00:07:53;4.30;99.90
6538;DHT22;3302;52.508;13.454;2023-11-19T00:10:20;4.30;99.90
6538;DHT22;3302;52.508;13.454;2023-11-19T00:12:48;4.40;99.90
6538;DHT22;3302;52.508;13.454;2023-11-19T00:15:14;4.30;99.90
6538;DHT22;3302;52.508;13.454;2023-11-19T00:17:41;4.30;99.90
6538;DHT22;3302;52.508;13.454;2023-11-19T00:20:14;4.30;99.90
6538;DHT22;3302;52.508;13.454;2023-11-19T00:22:56;4.30;99.90
6538;DHT22;3302;52.508;13.454;2023-11-19T00:25:23;4.30;99.90
6538;DHT22;3302;52.508;13.454;2023-11-19T00:27:50;4.30;99.90
6538;DHT22;3302;52.508;13.454;2023-11-19T00:30:16;4.30;99.90
6538;DHT22;3302;52.508;13.454;2023-11-19T00:32:42;4.30;99.90
6538;DHT22;3302;52.508;13.454;2023-11-19T00:35:09;4.30;99.90
6538;DHT22;3302;52.508;13.454;2023-11-19T00:37:39;4.40;99.90
6538;DHT22;3302;52.508;13.454;2023-11-19T00:40:06;4.30;99.90
6538;DHT22;3302;52.508;13.454;2023-11-19T00:42:31;4.40;99.90
6538;DHT22;3302;52.508;13.454;2023-11-19T00:44:57;4.40;99.90
6538;DHT22;3302;52.508;13.454;2023-11-19T00:47:23;4.40;99.90
6538;DHT22;3302;52.508;13.454;2023-11-19T00:49:49;4.40;99.90
6538;DHT22;3302;52.508;13.454;2023-11-19T00:52:16;4.40;99.90
6538;DHT22;3302;52.508;13.454;2023-11-19T00:54:42;4.40;99.90
6538;DHT22;3302;52.508;13.454;2023-11-19T00:57:08;4.40;99.90
6538;DHT22;3302;52.508;13.454;2023-11-19T00:59:34;4.40;99.90
6538;DHT22;3302;52.508;13.454;2023-11-19T01:02:00;4.40;99.90
6538;DHT22;3302;52.508;13.454;2023-11-19T01:04:36;4.40;99.90
6538;DHT22;3302;52.508;13.454;2023-11-19T01:07:02;4.40;99.90
6538;DHT22;3302;52.508;13.454;2023-11-19T01:09:32;4.40;99.90
6538;DHT22;3302;52.508;13.454;2023-11-19T01:12:01;4.40;99.90
6538;DHT22;3302;52.508;13.454;2023-11-19T01:14:27;4.40;99.90
6538;DHT22;3302;52.508;13.454;2023-11-19T01:16:55;4.40;99.90
6538;DHT22;3302;52.508;13.454;2023-11-19T01:19:24;4.50;99.90
6538;DHT22;3302;52.508;13.454;2023-11-19T01:21:52;4.50;99.90
6538;DHT22;3302;52.508;13.454;2023-11-19T01:24:19;4.50;99.90
6538;DHT22;3302;52.508;13.454;2023-11-19T01:26:45;4.50;99.90
6538;DHT22;3302;52.508;13.454;2023-11-19T01:29:16;4.50;99.90
6538;DHT22;3302;52.508;13.454;2023-11-19T01:31:46;4.50;99.90
6538;DHT22;3302;52.508;13.454;2023-11-19T01:34:12;4.50;99.90
6538;DHT22;3302;52.508;13.454;2023-11-19T01:36:39;4.50;99.90
6538;DHT22;3302;52.508;13.454;2023-11-19T01:39:05;4.50;99.90
6538;DHT22;3302;52.508;13.454;2023-11-19T01:41:37;4.50;99.90
6538;DHT22;3302;52.508;13.454;2023-11-19T01:44:06;4.50;99.90
6538;DHT22;3302;52.508;13.454;2023-11-19T01:46:32;4.50;99.90
6538;DHT22;3302;52.508;13.454;2023-11-19T01:48:59;4.50;99.90
6538;DHT22;3302;52.508;13.454;2023-11-19T01:51:27;4.60;99.90
6538;DHT22;3302;52.508;13.454;2023-11-19T01:53:53;4.50;99.90
6538;DHT22;3302;52.508;13.454;2023-11-19T01:56:20;4.50;99.90
6538;DHT22;3302;52.508;13.454;2023-11-19T01:58:48;4.50;99.90
6538;DHT22;3302;52.508;13.454;2023-11-19T02:01:15;4.60;99.90
6538;DHT22;3302;52.508;13.454;2023-11-19T02:03:41;4.60;99.90
6538;DHT22;3302;52.508;13.454;2023-11-19T02:06:08;4.60;99.90
6538;DHT22;3302;52.508;13.454;2023-11-19T02:08:36;4.50;99.90
6538;DHT22;3302;52.508;13.454;2023-11-19T02:11:02;4.50;99.90
6538;DHT22;3302;52.508;13.454;2023-11-19T02:13:28;4.50;99.90
6538;DHT22;3302;52.508;13.454;2023-11-19T02:15:54;4.50;99.90
6538;DHT22;3302;52.508;13.454;2023-11-19T02:18:24;4.50;99.90
6538;DHT22;3302;52.508;13.454;2023-11-19T02:20:54;4.50;99.90
6538;DHT22;3302;52.508;13.454;2023-11-19T02:23:20;4.50;99.90
6538;DHT22;3302;52.508;13.454;2023-11-19T02:28:17;4.50;99.90
6538;DHT22;3302;52.508;13.454;2023-11-19T02:30:43;4.50;99.90
6538;DHT22;3302;52.508;13.454;2023-11-19T02:33:09;4.50;99.90
6538;DHT22;3302;52.508;13.454;2023-11-19T02:35:35;4.50;99.90
6538;DHT22;3302;52.508;13.454;2023-11-19T02:38:01;4.60;99.90
6538;DHT22;3302;52.508;13.454;2023-11-19T02:40:29;4.60;99.90
6538;DHT22;3302;52.508;13.454;2023-11-19T02:42:55;4.60;99.90
6538;DHT22;3302;52.508;13.454;2023-11-19T02:45:25;4.60;99.90
6538;DHT22;3302;52.508;13.454;2023-11-19T02:47:52;4.60;99.90
6538;DHT22;3302;52.508;13.454;2023-11-19T02:50:20;4.60;99.90
6538;DHT22;3302;52.508;13.454;2023-11-19T02:52:52;4.60;99.90
6538;DHT22;3302;52.508;13.454;2023-11-19T02:55:19;4.70;99.90
6538;DHT22;3302;52.508;13.454;2023-11-19T02:57:45;4.70;99.90
6538;DHT22;3302;52.508;13.454;2023-11-19T03:00:15;4.70;99.90
6538;DHT22;3302;52.508;13.454;2023-11-19T03:02:41;4.70;99.90
6538;DHT22;3302;52.508;13.454;2023-11-19T03:05:15;4.70;99.90
6538;DHT22;3302;52.508;13.454;2023-11-19T03:07:43;4.70;99.90
6538;DHT22;3302;52.508;13.454;2023-11-19T03:10:12;4.70;99.90
6538;DHT22;3302;52.508;13.454;2023-11-19T03:12:40;4.70;99.90
6538;DHT22;3302;52.508;13.454;2023-11-19T03:15:07;4.70;99.90
6538;DHT22;3302;52.508;13.454;2023-11-19T03:17:44;4.80;99.90
6538;DHT22;3302;52.508;13.454;2023-11-19T03:20:11;4.80;99.90
6538;DHT22;3302;52.508;13.454;2023-11-19T03:22:41;4.80;99.90
6538;DHT22;3302;52.508;13.454;2023-11-19T03:25:08;4.80;99.90
6538;DHT22;3302;52.508;13.454;2023-11-19T03:27:38;4.80;99.90
6538;DHT22;3302;52.508;13.454;2023-11-19T03:30:11;4.80;99.90
6538;DHT22;3302;52.508;13.454;2023-11-19T03:32:37;4.80;99.90
6538;DHT22;3302;52.508;13.454;2023-11-19T03:35:05;4.80;99.90
6538;DHT22;3302;52.508;13.454;2023-11-19T03:37:32;4.70;99.90
6538;DHT22;3302;52.508;13.454;2023-11-19T03:39:59;4.70;99.90
6538;DHT22;3302;52.508;13.454;2023-11-19T03:42:28;4.70;99.90
6538;DHT22;3302;52.508;13.454;2023-11-19T03:44:56;4.70;99.90
6538;DHT22;3302;52.508;13.454;2023-11-19T03:47:22;4.60;99.90
6538;DHT22;3302;52.508;13.454;2023-11-19T03:49:49;4.50;99.90
6538;DHT22;3302;52.508;13.454;2023-11-19T03:52:14;4.50;99.90
6538;DHT22;3302;52.508;13.454;2023-11-19T03:54:41;4.40;99.90
6538;DHT22;3302;52.508;13.454;2023-11-19T03:57:06;4.40;99.90
6538;DHT22;3302;52.508;13.454;2023-11-19T03:59:32;4.40;99.90
6538;DHT22;3302;52.508;13.454;2023-11-19T04:01:59;4.40;99.90
6538;DHT22;3302;52.508;13.454;2023-11-19T04:04:26;4.30;99.90
6538;DHT22;3302;52.508;13.454;2023-11-19T04:06:53;4.30;99.90
6538;DHT22;3302;52.508;13.454;2023-11-19T04:09:19;4.30;99.90
6538;DHT22;3302;52.508;13.454;2023-11-19T04:11:45;4.30;99.90
6538;DHT22;3302;52.508;13.454;2023-11-19T04:14:13;4.20;99.90
6538;DHT22;3302;52.508;13.454;2023-11-19T04:16:39;4.20;99.90
6538;DHT22;3302;52.508;13.454;2023-11-19T04:19:05;4.20;99.90
6538;DHT22;3302;52.508;13.454;2023-11-19T04:21:32;4.20;99.90
6538;DHT22;3302;52.508;13.454;2023-11-19T04:23:58;4.20;99.90
6538;DHT22;3302;52.508;13.454;2023-11-19T04:26:24;4.30;99.90
6538;DHT22;3302;52.508;13.454;2023-11-19T04:28:50;4.20;99.90
6538;DHT22;3302;52.508;13.454;2023-11-19T04:31:16;4.20;99.90
6538;DHT22;3302;52.508;13.454;2023-11-19T04:33:42;4.20;99.90
6538;DHT22;3302;52.508;13.454;2023-11-19T04:36:12;4.30;99.90
6538;DHT22;3302;52.508;13.454;2023-11-19T04:38:39;4.30;99.90
6538;DHT22;3302;52.508;13.454;2023-11-19T04:41:06;4.30;99.90
6538;DHT22;3302;52.508;13.454;2023-11-19T04:43:32;4.30;99.90
6538;DHT22;3302;52.508;13.454;2023-11-19T04:45:58;4.30;99.90
6538;DHT22;3302;52.508;13.454;2023-11-19T04:48:24;4.30;99.90
6538;DHT22;3302;52.508;13.454;2023-11-19T04:50:50;4.20;99.90
6538;DHT22;3302;52.508;13.454;2023-11-19T04:53:18;4.20;99.90
6538;DHT22;3302;52.508;13.454;2023-11-19T04:55:44;4.20;99.90
6538;DHT22;3302;52.508;13.454;2023-11-19T04:58:10;4.20;99.90
6538;DHT22;3302;52.508;13.454;2023-11-19T05:00:36;4.20;99.90
6538;DHT22;3302;52.508;13.454;2023-11-19T05:03:02;4.10;99.90
6538;DHT22;3302;52.508;13.454;2023-11-19T05:05:28;4.20;99.90
6538;DHT22;3302;52.508;13.454;2023-11-19T05:07:54;4.10;99.90
6538;DHT22;3302;52.508;13.454;2023-11-19T05:10:20;4.10;99.90
6538;DHT22;3302;52.508;13.454;2023-11-19T05:12:46;4.10;99.90
6538;DHT22;3302;52.508;13.454;2023-11-19T05:15:12;4.10;99.90
6538;DHT22;3302;52.508;13.454;2023-11-19T05:17:38;4.10;99.90
6538;DHT22;3302;52.508;13.454;2023-11-19T05:20:05;4.10;99.90
6538;DHT22;3302;52.508;13.454;2023-11-19T05:22:31;4.10;99.90
6538;DHT22;3302;52.508;13.454;2023-11-19T05:24:57;4.10;99.90
6538;DHT22;3302;52.508;13.454;2023-11-19T05:27:23;4.10;99.90
6538;DHT22;3302;52.508;13.454;2023-11-19T05:29:50;4.10;99.90
6538;DHT22;3302;52.508;13.454;2023-11-19T05:32:15;4.10;99.90
6538;DHT22;3302;52.508;13.454;2023-11-19T05:34:41;4.10;99.90
6538;DHT22;3302;52.508;13.454;2023-11-19T05:37:07;4.10;99.90
6538;DHT22;3302;52.508;13.454;2023-11-19T05:39:35;4.10;99.90
6538;DHT22;3302;52.508;13.454;2023-11-19T05:42:01;4.10;99.90
6538;DHT22;3302;52.508;13.454;2023-11-19T05:44:26;4.10;99.90
6538;DHT22;3302;52.508;13.454;2023-11-19T05:46:52;4.10;99.90
6538;DHT22;3302;52.508;13.454;2023-11-19T05:49:18;4.10;99.90
6538;DHT22;3302;52.508;13.454;2023-11-19T05:51:44;4.20;99.90
6538;DHT22;3302;52.508;13.454;2023-11-19T05:54:10;4.10;99.90
6538;DHT22;3302;52.508;13.454;2023-11-19T05:56:36;4.10;99.90
6538;DHT22;3302;52.508;13.454;2023-11-19T05:59:03;4.20;99.90
6538;DHT22;3302;52.508;13.454;2023-11-19T06:01:35;4.10;99.90
6538;DHT22;3302;52.508;13.454;2023-11-19T06:04:02;4.20;99.90
6538;DHT22;3302;52.508;13.454;2023-11-19T06:06:28;4.20;99.90
6538;DHT22;3302;52.508;13.454;2023-11-19T06:08:54;4.20;99.90
6538;DHT22;3302;52.508;13.454;2023-11-19T06:11:20;4.30;99.90
6538;DHT22;3302;52.508;13.454;2023-11-19T06:13:46;4.20;99.90
6538;DHT22;3302;52.508;13.454;2023-11-19T06:16:13;4.20;99.90
6538;DHT22;3302;52.508;13.454;2023-11-19T06:18:39;4.30;99.90
6538;DHT22;3302;52.508;13.454;2023-11-19T06:21:07;4.30;99.90
6538;DHT22;3302;52.508;13.454;2023-11-19T06:23:32;4.30;99.90
6538;DHT22;3302;52.508;13.454;2023-11-19T06:25:58;4.30;99.90
6538;DHT22;3302;52.508;13.454;2023-11-19T06:28:25;4.30;99.90
6538;DHT22;3302;52.508;13.454;2023-11-19T06:30:50;4.30;99.90
6538;DHT22;3302;52.508;13.454;2023-11-19T06:33:16;4.30;99.90
6538;DHT22;3302;52.508;13.454;2023-11-19T06:35:42;4.30;99.90
6538;DHT22;3302;52.508;13.454;2023-11-19T06:38:08;4.30;99.90
6538;DHT22;3302;52.508;13.454;2023-11-19T06:40:34;4.30;99.90
6538;DHT22;3302;52.508;13.454;2023-11-19T06:43:06;4.30;99.90
6538;DHT22;3302;52.508;13.454;2023-11-19T06:45:34;4.30;99.90
6538;DHT22;3302;52.508;13.454;2023-11-19T06:48:06;4.30;99.90
6538;DHT22;3302;52.508;13.454;2023-11-19T06:50:32;4.30;99.90
6538;DHT22;3302;52.508;13.454;2023-11-19T06:52:58;4.30;99.90
6538;DHT22;3302;52.508;13.454;2023-11-19T06:55:25;4.30;99.90
6538;DHT22;3302;52.508;13.454;2023-11-19T06:57:51;4.30;99.90
6538;DHT22;3302;52.508;13.454;2023-11-19T07:00:17;4.30;99.90
6538;DHT22;3302;52.508;13.454;2023-11-19T07:02:44;4.40;99.90
6538;DHT22;3302;52.508;13.454;2023-11-19T07:05:10;4.40;99.90
6538;DHT22;3302;52.508;13.454;2023-11-19T07:07:37;4.40;99.90
6538;DHT22;3302;52.508;13.454;2023-11-19T07:10:03;4.40;99.90
6538;DHT22;3302;52.508;13.454;2023-11-19T07:12:30;4.40;99.90
6538;DHT22;3302;52.508;13.454;2023-11-19T07:14:56;4.40;99.90
6538;DHT22;3302;52.508;13.454;2023-11-19T07:17:22;4.40;99.90
6538;DHT22;3302;52.508;13.454;2023-11-19T07:19:49;4.40;99.90
6538;DHT22;3302;52.508;13.454;2023-11-19T07:22:15;4.40;99.90
6538;DHT22;3302;52.508;13.454;2023-11-19T07:24:41;4.50;99.90
6538;DHT22;3302;52.508;13.454;2023-11-19T07:27:08;4.50;99.90
6538;DHT22;3302;52.508;13.454;2023-11-19T07:29:35;4.50;99.90
6538;DHT22;3302;52.508;13.454;2023-11-19T07:32:01;4.50;99.90
6538;DHT22;3302;52.508;13.454;2023-11-19T07:34:28;4.50;99.90
6538;DHT22;3302;52.508;13.454;2023-11-19T07:36:54;4.50;99.90
6538;DHT22;3302;52.508;13.454;2023-11-19T07:39:25;4.50;99.90
6538;DHT22;3302;52.508;13.454;2023-11-19T07:41:50;4.50;99.90
6538;DHT22;3302;52.508;13.454;2023-11-19T07:44:16;4.50;99.90
6538;DHT22;3302;52.508;13.454;2023-11-19T07:46:42;4.60;99.90
6538;DHT22;3302;52.508;13.454;2023-11-19T07:49:08;4.60;99.90
6538;DHT22;3302;52.508;13.454;2023-11-19T07:51:35;4.60;99.90
6538;DHT22;3302;52.508;13.454;2023-11-19T07:54:01;4.70;99.90
6538;DHT22;3302;52.508;13.454;2023-11-19T07:56:27;4.70;99.90
6538;DHT22;3302;52.508;13.454;2023-11-19T07:58:53;4.70;99.90
6538;DHT22;3302;52.508;13.454;2023-11-19T08:01:19;4.70;99.90
6538;DHT22;3302;52.508;13.454;2023-11-19T08:03:45;4.70;99.90
6538;DHT22;3302;52.508;13.454;2023-11-19T08:06:10;4.70;99.90
6538;DHT22;3302;52.508;13.454;2023-11-19T08:08:37;4.80;99.90
6538;DHT22;3302;52.508;13.454;2023-11-19T08:11:04;4.80;99.90
6538;DHT22;3302;52.508;13.454;2023-11-19T08:13:31;4.80;99.90
6538;DHT22;3302;52.508;13.454;2023-11-19T08:15:57;4.80;99.90
6538;DHT22;3302;52.508;13.454;2023-11-19T08:18:24;4.90;99.90
6538;DHT22;3302;52.508;13.454;2023-11-19T08:20:50;4.90;99.90
6538;DHT22;3302;52.508;13.454;2023-11-19T08:23:19;5.00;99.90
6538;DHT22;3302;52.508;13.454;2023-11-19T08:25:45;5.00;99.90
6538;DHT22;3302;52.508;13.454;2023-11-19T08:28:11;5.00;99.90
6538;DHT22;3302;52.508;13.454;2023-11-19T08:30:37;5.10;99.90
6538;DHT22;3302;52.508;13.454;2023-11-19T08:33:03;5.10;99.90
6538;DHT22;3302;52.508;13.454;2023-11-19T08:35:29;5.20;99.90
6538;DHT22;3302;52.508;13.454;2023-11-19T08:37:55;5.20;99.90
6538;DHT22;3302;52.508;13.454;2023-11-19T08:40:21;5.20;99.90
6538;DHT22;3302;52.508;13.454;2023-11-19T08:42:47;5.30;99.90
6538;DHT22;3302;52.508;13.454;2023-11-19T08:45:12;5.30;99.90
6538;DHT22;3302;52.508;13.454;2023-11-19T08:47:38;5.40;99.90
6538;DHT22;3302;52.508;13.454;2023-11-19T08:50:06;5.40;99.90
6538;DHT22;3302;52.508;13.454;2023-11-19T08:52:32;5.50;99.90
6538;DHT22;3302;52.508;13.454;2023-11-19T08:54:58;5.50;99.90
6538;DHT22;3302;52.508;13.454;2023-11-19T08:57:23;5.60;99.90
6538;DHT22;3302;52.508;13.454;2023-11-19T08:59:51;5.70;99.90
6538;DHT22;3302;52.508;13.454;2023-11-19T09:02:17;5.80;99.90
6538;DHT22;3302;52.508;13.454;2023-11-19T09:04:44;5.80;99.90
6538;DHT22;3302;52.508;13.454;2023-11-19T09:07:09;5.80;99.90
6538;DHT22;3302;52.508;13.454;2023-11-19T09:09:36;5.90;99.90
6538;DHT22;3302;52.508;13.454;2023-11-19T09:12:02;5.90;99.90
6538;DHT22;3302;52.508;13.454;2023-11-19T09:14:31;5.90;99.90
6538;DHT22;3302;52.508;13.454;2023-11-19T09:16:57;6.00;99.90
6538;DHT22;3302;52.508;13.454;2023-11-19T09:19:24;6.00;99.90
6538;DHT22;3302;52.508;13.454;2023-11-19T09:21:50;6.10;99.90
6538;DHT22;3302;52.508;13.454;2023-11-19T09:24:16;6.10;99.90
6538;DHT22;3302;52.508;13.454;2023-11-19T09:26:42;6.20;99.90
6538;DHT22;3302;52.508;13.454;2023-11-19T09:29:08;6.30;99.90
6538;DHT22;3302;52.508;13.454;2023-11-19T09:31:34;6.40;99.90
6538;DHT22;3302;52.508;13.454;2023-11-19T09:34:00;6.50;99.90
6538;DHT22;3302;52.508;13.454;2023-11-19T09:36:26;6.60;99.90
6538;DHT22;3302;52.508;13.454;2023-11-19T09:38:52;6.70;99.90
6538;DHT22;3302;52.508;13.454;2023-11-19T09:41:18;6.80;99.90
6538;DHT22;3302;52.508;13.454;2023-11-19T09:43:45;6.90;99.90
6538;DHT22;3302;52.508;13.454;2023-11-19T09:46:13;7.00;99.90
6538;DHT22;3302;52.508;13.454;2023-11-19T09:48:41;7.00;99.90
6538;DHT22;3302;52.508;13.454;2023-11-19T09:51:08;7.10;99.90
6538;DHT22;3302;52.508;13.454;2023-11-19T09:53:36;7.30;99.90
6538;DHT22;3302;52.508;13.454;2023-11-19T09:56:05;7.50;99.90
6538;DHT22;3302;52.508;13.454;2023-11-19T09:58:32;7.60;99.90
6538;DHT22;3302;52.508;13.454;2023-11-19T10:00:59;7.70;99.90
6538;DHT22;3302;52.508;13.454;2023-11-19T10:03:26;7.70;99.90
6538;DHT22;3302;52.508;13.454;2023-11-19T10:05:56;7.90;99.90
6538;DHT22;3302;52.508;13.454;2023-11-19T10:08:22;8.00;99.90
6538;DHT22;3302;52.508;13.454;2023-11-19T10:10:48;8.10;99.90
6538;DHT22;3302;52.508;13.454;2023-11-19T10:13:14;8.20;99.90
6538;DHT22;3302;52.508;13.454;2023-11-19T10:15:40;8.30;99.90
6538;DHT22;3302;52.508;13.454;2023-11-19T10:18:07;8.30;99.90
6538;DHT22;3302;52.508;13.454;2023-11-19T10:20:42;8.40;99.90
6538;DHT22;3302;52.508;13.454;2023-11-19T10:23:08;8.50;99.90
6538;DHT22;3302;52.508;13.454;2023-11-19T10:25:34;8.60;99.90
6538;DHT22;3302;52.508;13.454;2023-11-19T10:28:00;8.60;99.90
6538;DHT22;3302;52.508;13.454;2023-11-19T10:30:28;8.70;99.90
6538;DHT22;3302;52.508;13.454;2023-11-19T10:33:13;8.80;99.90
6538;DHT22;3302;52.508;13.454;2023-11-19T10:35:57;8.80;99.90
6538;DHT22;3302;52.508;13.454;2023-11-19T10:38:24;8.90;99.90
6538;DHT22;3302;52.508;13.454;2023-11-19T10:40:51;9.10;99.90
6538;DHT22;3302;52.508;13.454;2023-11-19T10:43:21;9.20;99.90
6538;DHT22;3302;52.508;13.454;2023-11-19T10:45:49;9.30;99.90
6538;DHT22;3302;52.508;13.454;2023-11-19T10:48:15;9.40;99.90
6538;DHT22;3302;52.508;13.454;2023-11-19T10:50:43;9.50;99.90
6538;DHT22;3302;52.508;13.454;2023-11-19T10:53:11;9.60;99.90
6538;DHT22;3302;52.508;13.454;2023-11-19T10:55:39;9.70;99.90
6538;DHT22;3302;52.508;13.454;2023-11-19T10:58:09;9.70;99.90
6538;DHT22;3302;52.508;13.454;2023-11-19T11:00:45;9.80;99.90
6538;DHT22;3302;52.508;13.454;2023-11-19T11:03:21;9.90;99.90
6538;DHT22;3302;52.508;13.454;2023-11-19T11:05:52;10.00;99.90
6538;DHT22;3302;52.508;13.454;2023-11-19T11:08:19;10.10;99.90
6538;DHT22;3302;52.508;13.454;2023-11-19T11:10:57;10.10;99.90
6538;DHT22;3302;52.508;13.454;2023-11-19T11:13:26;10.10;99.90
6538;DHT22;3302;52.508;13.454;2023-11-19T11:15:57;10.00;99.90
6538;DHT22;3302;52.508;13.454;2023-11-19T11:18:26;10.20;99.90
6538;DHT22;3302;52.508;13.454;2023-11-19T11:21:14;10.30;99.90
6538;DHT22;3302;52.508;13.454;2023-11-19T11:23:50;10.30;99.90
6538;DHT22;3302;52.508;13.454;2023-11-19T11:29:20;10.50;99.90
6538;DHT22;3302;52.508;13.454;2023-11-19T11:37:47;10.40;99.90
6538;DHT22;3302;52.508;13.454;2023-11-19T11:40:17;10.60;99.90
6538;DHT22;3302;52.508;13.454;2023-11-19T11:42:44;10.70;99.90
6538;DHT22;3302;52.508;13.454;2023-11-19T11:45:12;10.70;99.90
6538;DHT22;3302;52.508;13.454;2023-11-19T11:50:15;10.90;99.90
6538;DHT22;3302;52.508;13.454;2023-11-19T11:58:02;11.20;99.90
6538;DHT22;3302;52.508;13.454;2023-11-19T12:00:48;11.20;99.90
6538;DHT22;3302;52.508;13.454;2023-11-19T12:03:14;11.20;99.90
6538;DHT22;3302;52.508;13.454;2023-11-19T12:05:41;11.20;99.90
6538;DHT22;3302;52.508;13.454;2023-11-19T12:08:11;11.20;99.90
6538;DHT22;3302;52.508;13.454;2023-11-19T12:13:09;11.20;99.90
6538;DHT22;3302;52.508;13.454;2023-11-19T12:18:30;11.30;99.90
6538;DHT22;3302;52.508;13.454;2023-11-19T12:20:59;11.20;99.90
6538;DHT22;3302;52.508;13.454;2023-11-19T12:23:30;11.30;99.90
6538;DHT22;3302;52.508;13.454;2023-11-19T12:25:56;11.30;99.90
6538;DHT22;3302;52.508;13.454;2023-11-19T12:28:22;11.30;99.90
6538;DHT22;3302;52.508;13.454;2023-11-19T12:30:49;11.30;99.90
6538;DHT22;3302;52.508;13.454;2023-11-19T12:33:16;11.30;99.90
6538;DHT22;3302;52.508;13.454;2023-11-19T12:35:44;11.30;99.90
6538;DHT22;3302;52.508;13.454;2023-11-19T12:38:24;11.40;99.90
6538;DHT22;3302;52.508;13.454;2023-11-19T12:41:06;11.30;99.90
6538;DHT22;3302;52.508;13.454;2023-11-19T12:43:32;11.30;99.90
6538;DHT22;3302;52.508;13.454;2023-11-19T12:46:00;11.30;99.90
6538;DHT22;3302;52.508;13.454;2023-11-19T12:48:26;11.20;99.90
6538;DHT22;3302;52.508;13.454;2023-11-19T12:50:57;11.20;99.90
6538;DHT22;3302;52.508;13.454;2023-11-19T12:53:24;11.20;99.90
6538;DHT22;3302;52.508;13.454;2023-11-19T12:55:51;11.30;99.90
6538;DHT22;3302;52.508;13.454;2023-11-19T12:58:34;11.30;99.90
6538;DHT22;3302;52.508;13.454;2023-11-19T13:01:09;11.20;99.90
6538;DHT22;3302;52.508;13.454;2023-11-19T13:03:37;11.20;99.90
6538;DHT22;3302;52.508;13.454;2023-11-19T13:06:08;11.20;99.90
6538;DHT22;3302;52.508;13.454;2023-11-19T13:08:41;11.20;99.90
6538;DHT22;3302;52.508;13.454;2023-11-19T13:11:07;11.20;99.90
6538;DHT22;3302;52.508;13.454;2023-11-19T13:13:54;11.20;99.90
6538;DHT22;3302;52.508;13.454;2023-11-19T13:16:19;11.20;99.90
6538;DHT22;3302;52.508;13.454;2023-11-19T13:18:45;11.20;99.90
6538;DHT22;3302;52.508;13.454;2023-11-19T13:21:11;11.30;99.90
6538;DHT22;3302;52.508;13.454;2023-11-19T13:23:37;11.20;99.90
6538;DHT22;3302;52.508;13.454;2023-11-19T13:26:02;11.20;99.90
6538;DHT22;3302;52.508;13.454;2023-11-19T13:28:29;11.10;99.90
6538;DHT22;3302;52.508;13.454;2023-11-19T13:30:55;11.10;99.90
6538;DHT22;3302;52.508;13.454;2023-11-19T13:33:21;11.20;99.90
6538;DHT22;3302;52.508;13.454;2023-11-19T13:35:46;11.20;99.90
6538;DHT22;3302;52.508;13.454;2023-11-19T13:38:12;11.20;99.90
6538;DHT22;3302;52.508;13.454;2023-11-19T13:40:38;11.20;99.90
6538;DHT22;3302;52.508;13.454;2023-11-19T13:43:04;11.20;99.90
6538;DHT22;3302;52.508;13.454;2023-11-19T13:45:30;11.20;99.90
6538;DHT22;3302;52.508;13.454;2023-11-19T13:47:56;11.20;99.90
6538;DHT22;3302;52.508;13.454;2023-11-19T13:50:22;11.20;99.90
6538;DHT22;3302;52.508;13.454;2023-11-19T13:52:48;11.20;99.90
6538;DHT22;3302;52.508;13.454;2023-11-19T13:55:14;11.20;99.90
6538;DHT22;3302;52.508;13.454;2023-11-19T13:57:41;11.30;99.90
6538;DHT22;3302;52.508;13.454;2023-11-19T14:00:11;11.20;99.90
6538;DHT22;3302;52.508;13.454;2023-11-19T14:02:42;11.20;99.90
6538;DHT22;3302;52.508;13.454;2023-11-19T14:05:09;11.20;99.90
6538;DHT22;3302;52.508;13.454;2023-11-19T14:07:37;11.20;99.90
6538;DHT22;3302;52.508;13.454;2023-11-19T14:10:03;11.10;99.90
6538;DHT22;3302;52.508;13.454;2023-11-19T14:12:30;11.20;99.90
6538;DHT22;3302;52.508;13.454;2023-11-19T14:14:56;11.20;99.90
6538;DHT22;3302;52.508;13.454;2023-11-19T14:17:22;11.20;99.90
6538;DHT22;3302;52.508;13.454;2023-11-19T14:19:48;11.20;99.90
6538;DHT22;3302;52.508;13.454;2023-11-19T14:22:14;11.10;99.90
6538;DHT22;3302;52.508;13.454;2023-11-19T14:24:39;11.10;99.90
6538;DHT22;3302;52.508;13.454;2023-11-19T14:27:07;11.20;99.90
6538;DHT22;3302;52.508;13.454;2023-11-19T14:29:33;11.20;99.90
6538;DHT22;3302;52.508;13.454;2023-11-19T14:32:00;11.20;99.90
6538;DHT22;3302;52.508;13.454;2023-11-19T14:34:26;11.10;99.90
6538;DHT22;3302;52.508;13.454;2023-11-19T14:36:52;11.10;99.90
6538;DHT22;3302;52.508;13.454;2023-11-19T14:39:19;11.20;99.90
6538;DHT22;3302;52.508;13.454;2023-11-19T14:41:45;11.20;99.90
6538;DHT22;3302;52.508;13.454;2023-11-19T14:44:11;11.20;99.90
6538;DHT22;3302;52.508;13.454;2023-11-19T14:46:37;11.10;99.90
6538;DHT22;3302;52.508;13.454;2023-11-19T14:49:03;11.10;99.90
6538;DHT22;3302;52.508;13.454;2023-11-19T14:51:38;11.10;99.90
6538;DHT22;3302;52.508;13.454;2023-11-19T14:54:05;11.10;99.90
6538;DHT22;3302;52.508;13.454;2023-11-19T14:56:31;11.10;99.90
6538;DHT22;3302;52.508;13.454;2023-11-19T14:58:57;11.20;99.90
6538;DHT22;3302;52.508;13.454;2023-11-19T15:01:24;11.20;99.90
6538;DHT22;3302;52.508;13.454;2023-11-19T15:03:50;11.20;99.90
6538;DHT22;3302;52.508;13.454;2023-11-19T15:06:16;11.30;99.90
6538;DHT22;3302;52.508;13.454;2023-11-19T15:08:43;11.20;99.90
6538;DHT22;3302;52.508;13.454;2023-11-19T15:11:10;11.30;99.90
6538;DHT22;3302;52.508;13.454;2023-11-19T15:13:37;11.20;99.90
6538;DHT22;3302;52.508;13.454;2023-11-19T15:16:04;11.30;99.90
6538;DHT22;3302;52.508;13.454;2023-11-19T15:18:32;11.20;99.90
6538;DHT22;3302;52.508;13.454;2023-11-19T15:20:58;11.10;99.90
6538;DHT22;3302;52.508;13.454;2023-11-19T15:23:24;11.10;99.90
6538;DHT22;3302;52.508;13.454;2023-11-19T15:25:50;11.00;99.90
6538;DHT22;3302;52.508;13.454;2023-11-19T15:28:16;11.00;99.90
6538;DHT22;3302;52.508;13.454;2023-11-19T15:30:41;11.00;99.90
6538;DHT22;3302;52.508;13.454;2023-11-19T15:33:07;11.00;99.90
6538;DHT22;3302;52.508;13.454;2023-11-19T15:35:34;10.90;99.90
6538;DHT22;3302;52.508;13.454;2023-11-19T15:38:01;10.90;99.90
6538;DHT22;3302;52.508;13.454;2023-11-19T15:40:27;10.90;99.90
6538;DHT22;3302;52.508;13.454;2023-11-19T15:42:53;10.90;99.90
6538;DHT22;3302;52.508;13.454;2023-11-19T15:45:20;10.90;99.90
6538;DHT22;3302;52.508;13.454;2023-11-19T15:47:46;10.90;99.90
6538;DHT22;3302;52.508;13.454;2023-11-19T15:50:12;10.90;99.90
6538;DHT22;3302;52.508;13.454;2023-11-19T15:52:38;10.80;99.90
6538;DHT22;3302;52.508;13.454;2023-11-19T15:55:05;10.80;99.90
6538;DHT22;3302;52.508;13.454;2023-11-19T15:57:31;10.80;99.90
6538;DHT22;3302;52.508;13.454;2023-11-19T15:59:56;10.70;99.90
6538;DHT22;3302;52.508;13.454;2023-11-19T16:02:22;10.70;99.90
6538;DHT22;3302;52.508;13.454;2023-11-19T16:04:48;10.70;99.90
6538;DHT22;3302;52.508;13.454;2023-11-19T16:07:16;10.70;99.90
6538;DHT22;3302;52.508;13.454;2023-11-19T16:09:42;10.70;99.90
6538;DHT22;3302;52.508;13.454;2023-11-19T16:12:08;10.70;99.90
6538;DHT22;3302;52.508;13.454;2023-11-19T16:14:34;10.70;99.90
6538;DHT22;3302;52.508;13.454;2023-11-19T16:17:00;10.70;99.90
6538;DHT22;3302;52.508;13.454;2023-11-19T16:19:26;10.70;99.90
6538;DHT22;3302;52.508;13.454;2023-11-19T16:21:53;10.70;99.90